createdAt,value
2023-04-17T00:00:07.571Z,96.95
2023-04-17T00:03:12.057Z,97.33
2023-04-17T00:06:19.078Z,97.04
2023-04-17T00:09:22.080Z,96.59
2023-04-17T00:12:24.796Z,96.64
2023-04-17T00:15:27.617Z,96.92
2023-04-17T00:18:30.689Z,96.78
2023-04-17T00:21:34.976Z,96.37
2023-04-17T00:24:37.699Z,96.76
2023-04-17T00:27:40.538Z,96.42
2023-04-17T00:30:43.254Z,96.73
2023-04-17T00:33:47.074Z,97.37
2023-04-17T00:36:51.414Z,96.76
2023-04-17T00:39:54.241Z,96.83
2023-04-17T00:43:01.399Z,97.19
2023-04-17T00:46:05.390Z,96.87
2023-04-17T00:49:09.086Z,97.11
2023-04-17T00:52:14.339Z,96.90
2023-04-17T00:55:17.180Z,97.00
2023-04-17T00:58:20.245Z,96.65
2023-04-17T01:01:23.394Z,97.07
2023-04-17T01:04:26.724Z,96.95
2023-04-17T01:07:31.603Z,96.66
2023-04-17T01:10:34.574Z,96.89
2023-04-17T01:13:45.811Z,96.93
2023-04-17T01:16:48.769Z,96.79
2023-04-17T01:19:51.807Z,96.55
2023-04-17T01:22:56.256Z,96.15
2023-04-17T01:26:00.436Z,96.24
2023-04-17T01:29:04.278Z,97.07
2023-04-17T01:32:07.139Z,97.05
2023-04-17T01:35:10.914Z,97.38
2023-04-17T01:38:13.611Z,96.88
2023-04-17T01:41:17.914Z,96.68
2023-04-17T01:44:20.726Z,96.69
2023-04-17T01:47:23.656Z,96.89
2023-04-17T01:50:27.605Z,96.53
2023-04-17T01:53:31.464Z,97.01
2023-04-17T01:56:35.905Z,96.77
2023-04-17T01:59:38.814Z,96.84
2023-04-17T02:02:42.135Z,96.96
2023-04-17T02:05:47.221Z,97.36
2023-04-17T02:08:50.142Z,98.18
2023-04-17T02:11:54.499Z,97.70
2023-04-17T02:15:01.183Z,97.87
2023-04-17T02:18:06.153Z,97.51
2023-04-17T02:21:09.826Z,97.48
2023-04-17T02:24:12.692Z,97.41
2023-04-17T02:27:17.389Z,97.69
2023-04-17T02:30:20.579Z,97.21
2023-04-17T02:33:23.515Z,97.52
2023-04-17T02:36:26.440Z,97.28
2023-04-17T02:39:29.348Z,97.41
2023-04-17T02:42:33.660Z,97.91
2023-04-17T02:45:36.684Z,97.87
2023-04-17T02:48:39.503Z,97.61
2023-04-17T02:51:42.440Z,97.63
2023-04-17T02:54:45.298Z,97.57
2023-04-17T02:57:49.868Z,97.50
2023-04-17T03:00:52.768Z,97.61
2023-04-17T03:03:56.421Z,97.71
2023-04-17T03:06:59.844Z,97.92
2023-04-17T03:10:03.299Z,97.72
2023-04-17T03:13:07.726Z,97.51
2023-04-17T03:16:10.722Z,97.92
2023-04-17T03:19:13.811Z,96.65
2023-04-17T03:22:16.793Z,96.54
2023-04-17T03:25:19.738Z,96.26
2023-04-17T03:28:24.117Z,96.97
2023-04-17T03:31:27.999Z,96.43
2023-04-17T03:34:32.440Z,96.67
2023-04-17T03:37:35.505Z,96.61
2023-04-17T03:40:38.499Z,96.79
2023-04-17T03:43:44.119Z,96.43
2023-04-17T03:46:47.078Z,96.97
2023-04-17T03:49:50.085Z,96.85
2023-04-17T03:52:52.930Z,97.05
2023-04-17T03:55:55.926Z,96.93
2023-04-17T03:59:00.216Z,96.56
2023-04-17T04:02:03.343Z,96.75
2023-04-17T04:05:07.228Z,96.70
2023-04-17T04:08:10.123Z,97.46
2023-04-17T04:11:13.076Z,97.76
2023-04-17T04:14:17.310Z,97.91
2023-04-17T04:17:20.064Z,97.60
2023-04-17T04:20:23.372Z,98.05
2023-04-17T04:23:28.115Z,97.87
2023-04-17T04:26:31.256Z,98.17
2023-04-17T04:29:38.680Z,97.95
2023-04-17T04:32:41.655Z,98.07
2023-04-17T04:35:47.588Z,97.86
2023-04-17T04:38:51.148Z,97.78
2023-04-17T04:41:55.641Z,97.36
2023-04-17T04:45:00.364Z,97.47
2023-04-17T04:48:03.355Z,97.59
2023-04-17T04:51:06.711Z,97.73
2023-04-17T04:54:09.693Z,97.65
2023-04-17T04:57:12.633Z,97.81
2023-04-17T05:00:18.734Z,97.01
2023-04-17T05:03:22.467Z,97.50
2023-04-17T05:06:26.267Z,97.18
2023-04-17T05:09:29.212Z,97.15
2023-04-17T05:12:33.065Z,97.34
2023-04-17T05:15:37.357Z,97.22
2023-04-17T05:18:40.296Z,97.08
2023-04-17T05:21:43.595Z,96.94
2023-04-17T05:24:46.505Z,96.52
2023-04-17T05:27:49.572Z,96.85
2023-04-17T05:30:53.959Z,96.52
2023-04-17T05:33:56.972Z,96.02
2023-04-17T05:36:59.890Z,96.41
2023-04-17T05:40:02.969Z,96.26
2023-04-17T05:43:09.792Z,96.65
2023-04-17T05:46:14.048Z,95.93
2023-04-17T05:49:17.035Z,95.81
2023-04-17T05:52:19.839Z,95.52
2023-04-17T05:55:22.830Z,96.11
2023-04-17T05:58:25.769Z,95.82
2023-04-17T06:01:30.234Z,96.29
2023-04-17T06:04:33.465Z,95.92
2023-04-17T06:07:38.381Z,95.87
2023-04-17T06:10:41.534Z,96.12
2023-04-17T06:13:44.376Z,96.73
2023-04-17T06:16:48.703Z,96.60
2023-04-17T06:19:51.805Z,96.55
2023-04-17T06:22:54.789Z,96.34
2023-04-17T06:25:57.839Z,96.32
2023-04-17T06:29:01.248Z,97.15
2023-04-17T06:32:05.860Z,96.78
2023-04-17T06:35:09.804Z,96.61
2023-04-17T06:38:12.696Z,96.29
2023-04-17T06:41:15.529Z,96.88
2023-04-17T06:44:18.759Z,96.89
2023-04-17T06:47:23.117Z,96.84
2023-04-17T06:50:26.371Z,95.55
2023-04-17T06:53:29.351Z,96.16
2023-04-17T06:56:32.676Z,95.69
2023-04-17T06:59:35.545Z,96.22
2023-04-17T07:02:39.855Z,95.97
2023-04-17T07:05:44.729Z,95.49
2023-04-17T07:08:47.689Z,95.95
2023-04-17T07:11:50.491Z,94.89
2023-04-17T07:14:53.275Z,95.23
2023-04-17T07:17:57.765Z,96.25
2023-04-17T07:21:01.462Z,96.48
2023-04-17T07:24:04.694Z,96.67
2023-04-17T07:27:07.781Z,96.84
2023-04-17T07:30:11.461Z,97.05
2023-04-17T07:33:15.870Z,96.42
2023-04-17T07:36:19.046Z,96.91
2023-04-17T07:39:22.353Z,96.79
2023-04-17T07:42:25.443Z,96.28
2023-04-17T07:45:28.620Z,96.92
2023-04-17T07:48:32.999Z,96.79
2023-04-17T07:51:35.880Z,96.12
2023-04-17T07:54:38.787Z,96.21
2023-04-17T07:57:42.726Z,95.96
2023-04-17T08:00:45.818Z,96.03
2023-04-17T08:03:51.865Z,96.53
2023-04-17T08:06:54.949Z,96.21
2023-04-17T08:09:57.815Z,96.16
2023-04-17T08:13:01.856Z,96.04
2023-04-17T08:16:04.880Z,95.65
2023-04-17T08:19:09.346Z,96.41
2023-04-17T08:22:12.629Z,95.89
2023-04-17T08:25:15.890Z,96.11
2023-04-17T08:28:18.617Z,95.96
2023-04-17T08:31:21.424Z,95.35
2023-04-17T08:34:25.671Z,95.43
2023-04-17T08:37:28.594Z,95.00
2023-04-17T08:40:31.554Z,94.68
2023-04-17T08:43:36.871Z,94.02
2023-04-17T08:46:40.820Z,94.01
2023-04-17T08:49:46.045Z,93.91
2023-04-17T08:52:50.478Z,94.33
2023-04-17T08:55:53.245Z,95.21
2023-04-17T08:58:56.149Z,95.17
2023-04-17T09:02:03.823Z,95.34
2023-04-17T09:05:20.117Z,94.57
2023-04-17T09:08:24.131Z,94.60
2023-04-17T09:11:27.591Z,95.07
2023-04-17T09:14:31.547Z,93.90
2023-04-17T09:17:37.789Z,93.77
2023-04-17T09:20:50.173Z,93.68
2023-04-17T09:23:56.100Z,92.54
2023-04-17T09:27:23.025Z,93.79
2023-04-17T09:30:27.106Z,92.61
2023-04-17T09:33:29.852Z,92.85
2023-04-17T09:36:36.824Z,91.53
2023-04-17T09:39:40.665Z,92.23
2023-04-17T09:42:55.639Z,92.08
2023-04-17T09:45:59.675Z,92.03
2023-04-17T09:49:08.351Z,92.32
2023-04-17T09:52:14.561Z,92.11
2023-04-17T09:55:21.365Z,92.15
2023-04-17T09:58:24.503Z,89.19
2023-04-17T10:01:28.928Z,88.71
2023-04-17T10:04:31.804Z,89.78
2023-04-17T10:07:37.056Z,90.17
2023-04-17T10:10:39.958Z,91.22
2023-04-17T10:13:46.291Z,90.95
2023-04-17T10:16:49.192Z,90.98
2023-04-17T10:19:52.186Z,90.70
2023-04-17T10:22:56.749Z,88.47
2023-04-17T10:26:45.573Z,88.48
2023-04-17T10:29:55.014Z,86.27
2023-04-17T10:33:24.597Z,86.99
2023-04-17T10:36:52.386Z,84.73
2023-04-17T10:40:01.177Z,84.43
2023-04-17T10:43:06.107Z,85.56
2023-04-17T10:46:11.079Z,86.51
2023-04-17T10:49:15.221Z,86.25
2023-04-17T10:52:45.359Z,86.36
2023-04-17T10:55:51.241Z,86.40
2023-04-17T10:58:59.246Z,86.62
2023-04-17T11:02:04.376Z,87.68
2023-04-17T11:05:08.184Z,88.98
2023-04-17T11:08:11.116Z,89.90
2023-04-17T11:11:18.594Z,89.79
2023-04-17T11:14:27.411Z,89.18
2023-04-17T11:17:30.489Z,90.10
2023-04-17T11:20:34.364Z,90.48
2023-04-17T11:23:37.558Z,91.24
2023-04-17T11:26:44.942Z,92.45
2023-04-17T11:29:47.784Z,93.40
2023-04-17T11:32:50.670Z,94.29
2023-04-17T11:35:55.548Z,93.81
2023-04-17T11:38:58.303Z,93.31
2023-04-17T11:42:03.849Z,93.95
2023-04-17T11:45:08.609Z,93.85
2023-04-17T11:48:13.190Z,93.84
2023-04-17T11:51:19.228Z,93.88
2023-04-17T11:54:26.115Z,93.43
2023-04-17T11:57:30.228Z,94.41
2023-04-17T12:00:33.780Z,94.51
2023-04-17T12:03:37.187Z,94.60
2023-04-17T12:06:40.391Z,95.62
2023-04-17T12:09:43.537Z,95.03
2023-04-17T12:12:47.679Z,94.73
2023-04-17T12:15:50.823Z,95.25
2023-04-17T12:18:54.094Z,95.31
2023-04-17T12:21:57.272Z,95.14
2023-04-17T12:25:00.773Z,93.42
2023-04-17T12:28:05.599Z,87.14
2023-04-17T12:31:08.311Z,85.67
2023-04-17T12:34:11.407Z,85.34
2023-04-17T12:37:14.335Z,85.50
2023-04-17T12:40:17.752Z,82.31
2023-04-17T12:43:22.065Z,81.71
2023-04-17T12:46:25.451Z,80.82
2023-04-17T12:49:28.449Z,78.94
2023-04-17T12:52:31.182Z,79.40
2023-04-17T12:55:34.114Z,81.46
2023-04-17T12:58:38.237Z,80.60
2023-04-17T13:01:41.250Z,81.62
2023-04-17T13:04:44.107Z,83.34
2023-04-17T13:07:47.378Z,83.37
2023-04-17T13:10:50.064Z,84.23
2023-04-17T13:13:54.081Z,84.79
2023-04-17T13:16:57.512Z,85.55
2023-04-17T13:20:00.382Z,86.17
2023-04-17T13:23:03.215Z,85.75
2023-04-17T13:26:06.413Z,86.11
2023-04-17T13:29:10.666Z,86.24
2023-04-17T13:32:13.553Z,84.91
2023-04-17T13:35:16.484Z,85.38
2023-04-17T13:38:19.187Z,83.77
2023-04-17T13:41:22.018Z,84.38
2023-04-17T13:44:26.608Z,82.59
2023-04-17T13:47:29.550Z,82.66
2023-04-17T13:50:35.908Z,82.69
2023-04-17T13:53:38.733Z,82.32
2023-04-17T13:56:42.325Z,80.66
2023-04-17T13:59:46.730Z,80.83
2023-04-17T14:02:49.976Z,79.88
2023-04-17T14:05:52.900Z,78.32
2023-04-17T14:08:56.224Z,79.13
2023-04-17T14:11:59.188Z,79.19
2023-04-17T14:15:03.737Z,79.21
2023-04-17T14:18:06.883Z,78.07
2023-04-17T14:21:09.572Z,77.40
2023-04-17T14:24:12.503Z,77.36
2023-04-17T14:27:15.597Z,77.27
2023-04-17T14:30:19.721Z,76.37
2023-04-17T14:33:22.964Z,75.07
2023-04-17T14:36:25.894Z,74.31
2023-04-17T14:39:30.816Z,75.53
2023-04-17T14:42:43.782Z,76.02
2023-04-17T14:45:55.284Z,75.07
2023-04-17T14:48:58.085Z,75.31
2023-04-17T14:52:00.913Z,75.59
2023-04-17T14:55:07.159Z,74.87
2023-04-17T14:58:10.091Z,74.31
2023-04-17T15:01:14.286Z,74.18
2023-04-17T15:04:17.242Z,74.54
2023-04-17T15:07:20.225Z,73.40
2023-04-17T15:10:23.036Z,73.35
2023-04-17T15:13:25.785Z,73.89
2023-04-17T15:16:34.283Z,73.46
2023-04-17T15:19:37.126Z,72.98
2023-04-17T15:22:39.787Z,72.94
2023-04-17T15:25:42.780Z,72.27
2023-04-17T15:28:45.634Z,72.35
2023-04-17T15:31:52.540Z,72.33
2023-04-17T15:34:55.387Z,71.75
2023-04-17T15:37:59.915Z,71.50
2023-04-17T15:41:03.641Z,72.22
2023-04-17T15:44:07.030Z,72.84
2023-04-17T15:47:11.176Z,72.53
2023-04-17T15:50:14.657Z,73.28
2023-04-17T15:53:17.417Z,71.83
2023-04-17T15:56:21.560Z,71.28
2023-04-17T15:59:25.337Z,72.95
2023-04-17T16:02:30.795Z,73.58
2023-04-17T16:05:33.834Z,73.87
2023-04-17T16:09:10.517Z,73.33
2023-04-17T16:20:08.771Z,73.96
2023-04-17T16:23:11.414Z,74.06
2023-04-17T16:26:15.030Z,73.86
2023-04-17T16:29:17.673Z,75.74
2023-04-17T16:32:20.855Z,74.16
2023-04-17T16:35:25.586Z,73.53
2023-04-17T16:38:28.528Z,74.23
2023-04-17T16:41:31.202Z,75.34
2023-04-17T16:44:33.975Z,75.55
2023-04-17T16:47:38.726Z,75.74
2023-04-17T16:50:43.050Z,74.36
2023-04-17T16:53:45.780Z,74.38
2023-04-17T16:56:48.863Z,74.04
2023-04-17T16:59:51.579Z,74.09
2023-04-17T17:02:54.401Z,74.69
2023-04-17T17:05:58.734Z,74.70
2023-04-17T17:09:01.756Z,75.13
2023-04-17T17:12:04.856Z,75.48
2023-04-17T17:15:08.838Z,74.94
2023-04-17T17:18:11.600Z,75.35
2023-04-17T17:21:16.396Z,75.24
2023-04-17T17:24:19.069Z,76.21
2023-04-17T17:27:21.940Z,74.57
2023-04-17T17:30:25.254Z,75.30
2023-04-17T17:33:28.254Z,75.97
2023-04-17T17:36:32.451Z,74.70
2023-04-17T17:39:35.233Z,75.94
2023-04-17T17:42:37.993Z,75.67
2023-04-17T17:45:40.662Z,76.07
2023-04-17T17:48:43.479Z,76.35
2023-04-17T17:51:47.635Z,76.10
2023-04-17T17:54:50.433Z,76.83
2023-04-17T17:57:53.324Z,77.24
2023-04-17T18:00:56.105Z,77.43
2023-04-17T18:03:58.821Z,77.60
2023-04-17T18:07:03.704Z,77.67
2023-04-17T18:10:07.965Z,77.78
2023-04-17T18:13:10.740Z,77.89
2023-04-17T18:16:13.550Z,77.75
2023-04-17T18:19:16.289Z,77.68
2023-04-17T18:22:21.460Z,77.26
2023-04-17T18:25:24.187Z,78.14
2023-04-17T18:28:27.113Z,78.06
2023-04-17T18:31:29.821Z,78.67
2023-04-17T18:34:32.584Z,78.88
2023-04-17T18:37:36.678Z,78.62
2023-04-17T18:40:39.398Z,79.30
2023-04-17T18:43:42.052Z,79.40
2023-04-17T18:46:44.914Z,79.08
2023-04-17T18:49:47.677Z,79.08
2023-04-17T18:52:52.393Z,79.04
2023-04-17T18:55:57.562Z,79.54
2023-04-17T18:59:00.850Z,79.96
2023-04-17T19:02:03.575Z,79.78
2023-04-17T19:05:07.415Z,80.29
2023-04-17T19:08:11.542Z,80.21
2023-04-17T19:11:14.401Z,79.84
2023-04-17T19:14:17.104Z,80.52
2023-04-17T19:17:19.761Z,80.87
2023-04-17T19:20:23.347Z,80.67
2023-04-17T19:23:27.414Z,81.18
2023-04-17T19:26:30.343Z,81.34
2023-04-17T19:29:33.807Z,81.88
2023-04-17T19:32:36.691Z,82.08
2023-04-17T19:35:39.691Z,82.15
2023-04-17T19:38:43.967Z,82.45
2023-04-17T19:41:50.807Z,82.07
2023-04-17T19:44:53.863Z,82.57
2023-04-17T19:47:57.181Z,81.17
2023-04-17T19:51:00.431Z,81.20
2023-04-17T19:54:04.611Z,81.69
2023-04-17T19:57:07.337Z,81.95
2023-04-17T20:00:11.276Z,82.00
2023-04-17T20:03:14.150Z,82.13
2023-04-17T20:06:16.954Z,82.33
2023-04-17T20:09:20.961Z,82.88
2023-04-17T20:12:23.621Z,82.68
2023-04-17T20:15:26.370Z,82.76
2023-04-17T20:18:29.051Z,82.34
2023-04-17T20:21:31.798Z,82.14
2023-04-17T20:24:36.228Z,83.17
2023-04-17T20:27:38.838Z,83.63
2023-04-17T20:30:41.864Z,83.40
2023-04-17T20:33:44.591Z,82.57
2023-04-17T20:36:47.284Z,83.06
2023-04-17T20:39:51.297Z,83.49
2023-04-17T20:42:54.034Z,83.31
2023-04-17T20:45:56.718Z,84.90
2023-04-17T20:48:59.504Z,84.48
2023-04-17T20:52:02.996Z,84.45
2023-04-17T20:55:07.644Z,84.36
2023-04-17T20:58:10.872Z,84.71
2023-04-17T21:01:13.558Z,85.22
2023-04-17T21:04:16.714Z,85.17
2023-04-17T21:07:20.324Z,85.79
2023-04-17T21:10:24.847Z,86.64
2023-04-17T21:13:28.047Z,86.94
2023-04-17T21:16:31.245Z,87.12
2023-04-17T21:19:36.682Z,86.90
2023-04-17T21:22:39.377Z,85.63
2023-04-17T21:25:52.393Z,84.92
2023-04-17T21:28:55.306Z,83.91
2023-04-17T21:31:58.586Z,83.40
2023-04-17T21:35:01.596Z,82.99
2023-04-17T21:38:04.279Z,84.00
2023-04-17T21:41:09.660Z,83.93
2023-04-17T21:44:12.576Z,84.76
2023-04-17T21:47:16.562Z,84.87
2023-04-17T21:50:19.689Z,85.41
2023-04-17T21:53:22.349Z,85.77
2023-04-17T21:56:26.497Z,85.53
2023-04-17T21:59:29.212Z,86.12
2023-04-17T22:02:32.306Z,86.27
2023-04-17T22:05:35.141Z,86.78
2023-04-17T22:08:37.877Z,86.66
2023-04-17T22:11:42.196Z,86.26
2023-04-17T22:14:44.859Z,86.20
2023-04-17T22:17:47.738Z,87.01
2023-04-17T22:20:50.552Z,86.75
2023-04-17T22:23:53.298Z,86.73
2023-04-17T22:26:57.604Z,86.25
2023-04-17T22:30:00.321Z,85.29
2023-04-17T22:33:03.298Z,84.45
2023-04-17T22:36:06.334Z,84.32
2023-04-17T22:39:09.220Z,84.39
2023-04-17T22:42:13.270Z,83.84
2023-04-17T22:45:16.017Z,83.69
2023-04-17T22:48:18.917Z,83.20
2023-04-17T22:51:22.438Z,82.69
2023-04-17T22:54:25.217Z,82.48
2023-04-17T22:57:29.356Z,82.45
2023-04-17T23:00:32.438Z,81.68
2023-04-17T23:03:37.588Z,81.88
2023-04-17T23:06:40.371Z,81.65
2023-04-17T23:09:43.090Z,82.13
2023-04-17T23:12:47.446Z,82.22
2023-04-17T23:15:51.457Z,81.85
2023-04-17T23:18:54.135Z,82.11
2023-04-17T23:21:57.866Z,82.76
2023-04-17T23:25:00.555Z,82.98
2023-04-17T23:28:04.979Z,83.85
2023-04-17T23:31:07.851Z,84.17
2023-04-17T23:34:10.715Z,84.87
2023-04-17T23:37:13.460Z,84.57
2023-04-17T23:40:16.255Z,84.07
2023-04-17T23:43:20.304Z,84.33
2023-04-17T23:46:23.295Z,84.74
2023-04-17T23:49:26.115Z,85.33
2023-04-17T23:52:28.898Z,85.83
2023-04-17T23:55:31.601Z,85.70
2023-04-17T23:58:35.742Z,85.55
